createdAt,value
2022-11-18T00:01:46.620Z,20.40
2022-11-18T00:04:14.386Z,20.40
2022-11-18T00:06:42.107Z,20.40
2022-11-18T00:09:10.027Z,20.40
2022-11-18T00:11:55.492Z,20.40
2022-11-18T00:14:23.659Z,20.40
2022-11-18T00:16:51.487Z,20.40
2022-11-18T00:19:19.696Z,20.40
2022-11-18T00:21:47.735Z,20.30
2022-11-18T00:24:15.546Z,20.30
2022-11-18T00:26:43.394Z,20.30
2022-11-18T00:29:11.671Z,20.30
2022-11-18T00:31:39.407Z,20.30
2022-11-18T00:34:07.224Z,20.30
2022-11-18T00:36:35.057Z,20.30
2022-11-18T00:39:02.879Z,20.30
2022-11-18T00:41:50.662Z,20.30
2022-11-18T00:44:17.420Z,20.30
2022-11-18T00:46:45.365Z,20.30
2022-11-18T00:49:13.125Z,20.30
2022-11-18T00:51:40.969Z,20.30
2022-11-18T00:54:08.781Z,20.30
2022-11-18T00:56:36.549Z,20.30
2022-11-18T00:59:04.280Z,20.30
2022-11-18T01:01:32.237Z,20.30
2022-11-18T01:04:00.168Z,20.30
2022-11-18T01:06:27.953Z,20.30
2022-11-18T01:08:55.683Z,20.30
2022-11-18T01:11:40.789Z,20.30
2022-11-18T01:14:08.544Z,20.20
2022-11-18T01:16:36.347Z,20.20
2022-11-18T01:19:04.102Z,20.20
2022-11-18T01:21:31.874Z,20.20
2022-11-18T01:23:59.667Z,20.20
2022-11-18T01:26:27.423Z,20.20
2022-11-18T01:28:55.246Z,20.20
2022-11-18T01:31:23.015Z,20.20
2022-11-18T01:33:50.810Z,20.20
2022-11-18T01:36:18.621Z,20.20
2022-11-18T01:38:46.373Z,20.20
2022-11-18T01:41:14.218Z,20.10
2022-11-18T01:43:42.074Z,20.10
2022-11-18T01:46:09.939Z,20.10
2022-11-18T01:48:39.224Z,20.10
2022-11-18T01:51:06.984Z,20.10
2022-11-18T01:53:35.021Z,20.10
2022-11-18T01:56:02.777Z,20.10
2022-11-18T01:58:30.517Z,20.10
2022-11-18T02:00:58.297Z,20.10
2022-11-18T02:03:26.095Z,20.10
2022-11-18T02:05:53.948Z,20.10
2022-11-18T02:08:21.937Z,20.10
2022-11-18T02:10:49.660Z,20.00
2022-11-18T02:13:17.663Z,20.00
2022-11-18T02:15:45.468Z,20.00
2022-11-18T02:18:13.237Z,20.00
2022-11-18T02:20:41.023Z,20.00
2022-11-18T02:23:08.796Z,20.00
2022-11-18T02:25:36.569Z,20.00
2022-11-18T02:28:04.355Z,20.00
2022-11-18T02:30:32.162Z,20.00
2022-11-18T02:32:59.942Z,20.00
2022-11-18T02:35:27.734Z,20.00
2022-11-18T02:37:55.534Z,20.00
2022-11-18T02:40:23.313Z,19.90
2022-11-18T02:42:51.115Z,19.90
2022-11-18T02:45:18.871Z,19.90
2022-11-18T02:47:46.725Z,19.90
2022-11-18T02:50:14.469Z,19.90
2022-11-18T02:52:42.324Z,19.90
2022-11-18T02:55:10.080Z,19.90
2022-11-18T02:57:37.866Z,19.90
2022-11-18T03:00:05.665Z,19.90
2022-11-18T03:02:33.529Z,19.90
2022-11-18T03:05:01.304Z,19.90
2022-11-18T03:07:29.176Z,19.90
2022-11-18T03:09:57.040Z,19.90
2022-11-18T03:12:24.849Z,19.90
2022-11-18T03:14:52.657Z,19.90
2022-11-18T03:17:20.379Z,19.90
2022-11-18T03:19:48.196Z,19.90
2022-11-18T03:22:15.977Z,19.90
2022-11-18T03:24:43.803Z,19.90
2022-11-18T03:27:13.053Z,19.90
2022-11-18T03:29:40.815Z,19.90
2022-11-18T03:32:08.570Z,19.90
2022-11-18T03:34:36.320Z,19.90
2022-11-18T03:37:09.047Z,19.90
2022-11-18T03:39:38.319Z,19.90
2022-11-18T03:42:06.097Z,19.90
2022-11-18T03:44:33.915Z,19.90
2022-11-18T03:47:01.699Z,19.90
2022-11-18T03:49:30.259Z,19.90
2022-11-18T03:51:58.129Z,19.90
2022-11-18T03:54:25.888Z,19.80
2022-11-18T03:56:53.706Z,19.90
2022-11-18T03:59:21.589Z,19.90
2022-11-18T04:01:49.805Z,19.80
2022-11-18T04:04:17.660Z,19.90
2022-11-18T04:06:45.411Z,19.80
2022-11-18T04:09:13.166Z,19.80
2022-11-18T04:11:58.419Z,19.90
2022-11-18T04:14:26.216Z,19.80
2022-11-18T04:16:54.175Z,19.80
2022-11-18T04:19:22.268Z,19.80
2022-11-18T04:21:50.289Z,19.80
2022-11-18T04:24:18.049Z,19.80
2022-11-18T04:26:45.852Z,19.80
2022-11-18T04:29:13.650Z,19.80
2022-11-18T04:31:41.382Z,19.80
2022-11-18T04:34:09.202Z,19.80
2022-11-18T04:36:36.967Z,19.80
2022-11-18T04:39:04.739Z,19.80
2022-11-18T04:41:49.812Z,19.80
2022-11-18T04:44:17.631Z,19.80
2022-11-18T04:46:45.363Z,19.70
2022-11-18T04:49:13.274Z,19.70
2022-11-18T04:51:41.084Z,19.70
2022-11-18T04:54:08.870Z,19.70
2022-11-18T04:56:36.709Z,19.70
2022-11-18T04:59:04.487Z,19.70
2022-11-18T05:01:32.432Z,19.60
2022-11-18T05:04:00.285Z,19.60
2022-11-18T05:06:28.202Z,19.60
2022-11-18T05:08:56.150Z,19.60
2022-11-18T05:11:41.330Z,19.60
2022-11-18T05:14:09.306Z,19.60
2022-11-18T05:16:37.182Z,19.50
2022-11-18T05:19:05.497Z,19.60
2022-11-18T05:21:33.397Z,19.60
2022-11-18T05:24:01.259Z,19.60
2022-11-18T05:26:29.158Z,19.60
2022-11-18T05:28:57.031Z,19.60
2022-11-18T05:31:24.837Z,19.60
2022-11-18T05:33:52.733Z,19.60
2022-11-18T05:36:20.473Z,19.60
2022-11-18T05:38:48.284Z,19.60
2022-11-18T05:41:36.088Z,19.60
2022-11-18T05:44:02.884Z,19.60
2022-11-18T05:46:30.670Z,19.60
2022-11-18T05:48:58.550Z,19.60
2022-11-18T05:51:26.333Z,19.60
2022-11-18T05:53:54.113Z,19.60
2022-11-18T05:56:21.980Z,19.60
2022-11-18T05:58:49.782Z,19.60
2022-11-18T06:01:17.701Z,19.60
2022-11-18T06:03:45.469Z,19.60
2022-11-18T06:06:15.516Z,19.60
2022-11-18T06:08:43.303Z,19.60
2022-11-18T06:11:11.183Z,19.60
2022-11-18T06:13:38.979Z,19.60
2022-11-18T06:16:06.793Z,19.60
2022-11-18T06:18:34.738Z,19.60
2022-11-18T06:21:02.555Z,19.60
2022-11-18T06:23:30.451Z,19.60
2022-11-18T06:25:58.190Z,19.60
2022-11-18T06:28:26.070Z,19.60
2022-11-18T06:30:53.931Z,19.60
2022-11-18T06:33:21.761Z,19.60
2022-11-18T06:35:49.533Z,19.60
2022-11-18T06:38:17.410Z,19.50
2022-11-18T06:40:45.357Z,19.50
2022-11-18T06:43:30.880Z,19.50
2022-11-18T06:46:16.023Z,19.50
2022-11-18T06:48:43.896Z,19.50
2022-11-18T06:51:11.709Z,19.50
2022-11-18T06:53:39.514Z,19.50
2022-11-18T06:56:07.429Z,19.50
2022-11-18T06:58:35.249Z,19.50
2022-11-18T07:01:03.183Z,19.50
2022-11-18T07:03:30.997Z,19.50
2022-11-18T07:05:58.774Z,19.50
2022-11-18T07:08:26.542Z,19.50
2022-11-18T07:10:54.283Z,19.50
2022-11-18T07:13:22.114Z,19.50
2022-11-18T07:15:49.930Z,19.50
2022-11-18T07:18:17.911Z,19.50
2022-11-18T07:20:45.803Z,19.50
2022-11-18T07:23:13.601Z,19.50
2022-11-18T07:25:45.144Z,19.50
2022-11-18T07:28:13.236Z,19.50
2022-11-18T07:30:41.092Z,19.50
2022-11-18T07:33:08.857Z,19.50
2022-11-18T07:35:36.732Z,19.50
2022-11-18T07:38:04.503Z,19.50
2022-11-18T07:40:32.370Z,19.50
2022-11-18T07:43:00.179Z,19.50
2022-11-18T07:45:27.941Z,19.50
2022-11-18T07:47:55.776Z,19.50
2022-11-18T07:50:23.731Z,19.50
2022-11-18T07:52:51.556Z,19.50
2022-11-18T07:55:19.311Z,19.50
2022-11-18T07:57:47.108Z,19.50
2022-11-18T08:00:14.947Z,19.50
2022-11-18T08:02:43.820Z,19.40
2022-11-18T08:05:17.695Z,19.50
2022-11-18T08:07:45.979Z,19.50
2022-11-18T08:10:13.758Z,19.50
2022-11-18T08:12:41.499Z,19.50
2022-11-18T08:15:09.269Z,19.50
2022-11-18T08:17:37.074Z,19.50
2022-11-18T08:20:04.867Z,19.50
2022-11-18T08:22:32.627Z,19.50
2022-11-18T08:25:00.402Z,19.40
2022-11-18T08:27:28.163Z,19.40
2022-11-18T08:29:55.929Z,19.40
2022-11-18T08:32:23.868Z,19.40
2022-11-18T08:34:51.623Z,19.40
2022-11-18T08:37:19.357Z,19.40
2022-11-18T08:39:47.199Z,19.40
2022-11-18T08:42:14.961Z,19.30
2022-11-18T08:44:42.770Z,19.30
2022-11-18T08:47:10.800Z,19.30
2022-11-18T08:49:38.596Z,19.30
2022-11-18T08:52:06.446Z,19.30
2022-11-18T08:54:34.298Z,19.30
2022-11-18T08:57:02.096Z,19.30
2022-11-18T08:59:29.833Z,19.30
2022-11-18T09:01:57.761Z,19.30
2022-11-18T09:04:25.551Z,19.30
2022-11-18T09:06:53.364Z,19.30
2022-11-18T09:09:21.394Z,19.30
2022-11-18T09:11:49.292Z,19.30
2022-11-18T09:15:12.325Z,19.30
2022-11-18T09:17:06.280Z,19.30
2022-11-18T09:19:52.086Z,19.30
2022-11-18T09:22:19.844Z,19.30
2022-11-18T09:24:47.642Z,19.40
2022-11-18T09:27:17.337Z,19.40
2022-11-18T09:29:45.703Z,19.40
2022-11-18T09:32:13.544Z,19.40
2022-11-18T09:34:41.353Z,19.40
2022-11-18T09:37:09.094Z,19.40
2022-11-18T09:39:37.613Z,19.40
2022-11-18T09:42:05.477Z,19.40
2022-11-18T09:44:33.284Z,19.40
2022-11-18T09:47:01.063Z,19.40
2022-11-18T09:49:28.883Z,19.60
2022-11-18T09:51:56.664Z,20.10
2022-11-18T09:54:24.399Z,20.80
2022-11-18T09:56:52.289Z,21.30
2022-11-18T09:59:20.173Z,21.60
2022-11-18T10:01:48.036Z,21.80
2022-11-18T10:04:16.787Z,21.90
2022-11-18T10:06:44.650Z,21.80
2022-11-18T10:09:13.387Z,21.80
2022-11-18T10:11:42.730Z,21.70
2022-11-18T10:14:12.949Z,21.60
2022-11-18T10:16:42.297Z,21.50
2022-11-18T10:19:10.054Z,21.40
2022-11-18T10:21:37.791Z,21.30
2022-11-18T10:24:05.548Z,21.20
2022-11-18T10:26:33.322Z,21.00
2022-11-18T10:29:01.133Z,20.90
2022-11-18T10:31:28.879Z,20.80
2022-11-18T10:33:56.664Z,20.70
2022-11-18T10:36:24.431Z,20.60
2022-11-18T10:38:52.199Z,20.50
2022-11-18T10:41:20.012Z,20.30
2022-11-18T10:43:48.672Z,20.30
2022-11-18T10:46:16.451Z,20.20
2022-11-18T10:48:44.240Z,20.20
2022-11-18T10:54:21.303Z,20.00
2022-11-18T10:57:06.546Z,20.00
2022-11-18T10:59:35.064Z,20.00
2022-11-18T11:02:08.364Z,19.90
2022-11-18T11:04:45.605Z,19.90
2022-11-18T11:07:13.418Z,19.80
2022-11-18T11:09:41.263Z,19.80
2022-11-18T11:12:15.074Z,19.80
2022-11-18T11:14:42.948Z,19.70
2022-11-18T11:17:11.056Z,19.70
2022-11-18T11:19:39.005Z,19.70
2022-11-18T11:22:06.795Z,19.60
2022-11-18T11:24:34.589Z,19.60
2022-11-18T11:29:50.185Z,19.60
2022-11-18T11:32:18.206Z,19.50
2022-11-18T11:34:46.127Z,19.50
2022-11-18T11:37:14.068Z,19.50
2022-11-18T11:39:41.907Z,19.50
2022-11-18T11:42:09.702Z,19.50
2022-11-18T11:44:37.600Z,19.40
2022-11-18T11:47:22.874Z,19.40
2022-11-18T11:49:50.764Z,19.40
2022-11-18T11:52:18.610Z,19.40
2022-11-18T11:54:46.447Z,19.40
2022-11-18T11:57:14.344Z,19.40
2022-11-18T11:59:42.272Z,19.40
2022-11-18T12:02:15.691Z,19.40
2022-11-18T12:04:43.714Z,19.40
2022-11-18T12:07:11.823Z,19.30
2022-11-18T12:09:39.702Z,19.30
2022-11-18T12:12:27.564Z,19.30
2022-11-18T12:14:55.424Z,19.30
2022-11-18T12:17:23.299Z,19.30
2022-11-18T12:19:51.098Z,19.30
2022-11-18T12:22:18.874Z,19.30
2022-11-18T12:24:46.838Z,19.20
2022-11-18T12:27:14.724Z,19.20
2022-11-18T12:29:42.583Z,19.20
2022-11-18T12:32:10.430Z,19.20
2022-11-18T12:34:38.346Z,19.20
2022-11-18T12:37:06.185Z,19.20
2022-11-18T12:39:33.979Z,19.20
2022-11-18T12:42:19.688Z,19.20
2022-11-18T12:44:47.516Z,19.30
2022-11-18T12:47:15.529Z,19.30
2022-11-18T12:49:43.338Z,19.30
2022-11-18T12:52:11.499Z,19.30
2022-11-18T12:54:39.424Z,19.30
2022-11-18T12:57:07.314Z,19.30
2022-11-18T12:59:35.594Z,19.20
2022-11-18T13:02:03.459Z,19.20
2022-11-18T13:04:31.397Z,19.20
2022-11-18T13:07:02.896Z,19.20
2022-11-18T13:09:30.949Z,19.20
2022-11-18T13:11:58.959Z,19.20
2022-11-18T13:14:44.371Z,19.20
2022-11-18T13:17:30.058Z,19.20
2022-11-18T13:19:58.128Z,19.20
2022-11-18T13:22:43.378Z,19.20
2022-11-18T13:25:11.262Z,19.20
2022-11-18T13:27:39.147Z,19.10
2022-11-18T13:30:08.839Z,19.10
2022-11-18T13:32:36.691Z,19.10
2022-11-18T13:35:05.381Z,19.10
2022-11-18T13:37:34.170Z,19.10
2022-11-18T13:40:02.033Z,19.10
2022-11-18T13:42:29.954Z,19.00
2022-11-18T13:44:57.861Z,19.00
2022-11-18T13:47:25.746Z,19.00
2022-11-18T13:49:54.970Z,19.00
2022-11-18T13:52:23.047Z,19.00
2022-11-18T13:54:50.953Z,19.00
2022-11-18T13:57:19.851Z,19.00
2022-11-18T13:59:47.810Z,19.00
2022-11-18T14:02:15.719Z,19.00
2022-11-18T14:04:43.569Z,19.00
2022-11-18T14:07:11.493Z,19.00
2022-11-18T14:09:39.391Z,19.00
2022-11-18T14:12:07.625Z,19.00
2022-11-18T14:14:35.550Z,19.00
2022-11-18T14:17:03.432Z,19.00
2022-11-18T14:19:31.343Z,19.00
2022-11-18T14:21:59.211Z,19.00
2022-11-18T14:24:27.073Z,19.00
2022-11-18T14:26:54.941Z,18.90
2022-11-18T14:29:23.389Z,18.90
2022-11-18T14:31:51.350Z,18.90
2022-11-18T14:34:19.635Z,18.90
2022-11-18T14:36:47.474Z,19.00
2022-11-18T14:39:30.559Z,19.00
2022-11-18T14:41:58.469Z,19.00
2022-11-18T14:44:26.337Z,19.00
2022-11-18T14:46:55.436Z,19.00
2022-11-18T14:49:23.621Z,20.10
2022-11-18T14:51:51.747Z,25.90
2022-11-18T14:54:25.942Z,32.30
2022-11-18T14:56:54.979Z,36.70
2022-11-18T14:59:22.851Z,39.80
2022-11-18T15:01:50.845Z,41.70
2022-11-18T15:04:21.003Z,42.90
2022-11-18T15:06:49.248Z,43.80
2022-11-18T15:09:17.171Z,44.40
2022-11-18T15:11:45.084Z,44.70
2022-11-18T15:14:12.950Z,45.20
2022-11-18T15:16:40.856Z,45.60
2022-11-18T15:19:08.762Z,46.10
2022-11-18T15:21:36.637Z,46.40
2022-11-18T15:24:08.877Z,46.50
2022-11-18T15:26:37.379Z,46.40
2022-11-18T15:29:05.237Z,45.80
2022-11-18T15:31:33.069Z,44.80
2022-11-18T15:34:06.402Z,43.80
2022-11-18T15:36:46.286Z,42.70
2022-11-18T15:39:14.161Z,41.30
2022-11-18T15:41:42.070Z,40.10
2022-11-18T15:44:10.084Z,39.00
2022-11-18T15:46:39.467Z,37.90
2022-11-18T15:49:09.471Z,36.80
2022-11-18T15:51:37.865Z,35.80
2022-11-18T15:54:05.774Z,34.80
2022-11-18T15:56:33.953Z,34.00
2022-11-18T15:59:01.812Z,33.20
2022-11-18T16:01:29.783Z,32.50
2022-11-18T16:03:57.727Z,31.80
2022-11-18T16:06:25.647Z,31.20
2022-11-18T16:08:59.237Z,30.80
2022-11-18T16:11:45.483Z,30.30
2022-11-18T16:14:13.391Z,29.80
2022-11-18T16:16:41.294Z,29.30
2022-11-18T16:19:09.190Z,28.80
2022-11-18T16:21:37.119Z,28.40
2022-11-18T16:24:05.050Z,27.90
2022-11-18T16:26:32.975Z,27.50
2022-11-18T16:29:00.861Z,27.10
2022-11-18T16:31:44.744Z,26.70
2022-11-18T16:34:12.677Z,26.40
2022-11-18T16:36:40.537Z,26.10
2022-11-18T16:39:08.680Z,25.80
2022-11-18T16:41:36.565Z,25.50
2022-11-18T16:44:04.658Z,25.30
2022-11-18T16:46:32.610Z,25.10
2022-11-18T16:49:00.550Z,24.80
2022-11-18T16:51:28.478Z,24.60
2022-11-18T16:53:56.300Z,24.50
2022-11-18T16:56:24.086Z,24.80
2022-11-18T16:58:51.832Z,25.30
2022-11-18T17:01:24.685Z,25.80
2022-11-18T17:03:55.694Z,26.00
2022-11-18T17:06:23.467Z,26.10
2022-11-18T17:08:51.347Z,26.10
2022-11-18T17:11:19.075Z,26.00
2022-11-18T17:13:46.924Z,25.90
2022-11-18T17:16:14.692Z,25.70
2022-11-18T17:18:42.495Z,25.50
2022-11-18T17:21:11.044Z,25.40
2022-11-18T17:23:38.966Z,25.20
2022-11-18T17:26:08.874Z,25.00
2022-11-18T17:28:36.708Z,24.80
2022-11-18T17:31:04.497Z,24.60
2022-11-18T17:33:32.264Z,24.50
2022-11-18T17:36:00.573Z,24.30
2022-11-18T17:38:28.430Z,24.10
2022-11-18T17:40:56.253Z,24.30
2022-11-18T17:43:24.019Z,24.90
2022-11-18T17:45:52.361Z,25.60
2022-11-18T17:48:20.149Z,26.10
2022-11-18T17:50:48.276Z,26.50
2022-11-18T17:53:16.206Z,26.60
2022-11-18T17:55:44.394Z,26.60
2022-11-18T17:58:12.164Z,26.50
2022-11-18T18:00:39.905Z,26.30
2022-11-18T18:03:07.694Z,26.10
2022-11-18T18:05:37.817Z,25.80
2022-11-18T18:08:09.943Z,25.40
2022-11-18T18:10:37.815Z,25.60
2022-11-18T18:13:23.490Z,27.90
2022-11-18T18:15:51.764Z,31.40
2022-11-18T18:18:19.535Z,35.00
2022-11-18T18:20:47.512Z,37.50
2022-11-18T18:23:15.300Z,39.30
2022-11-18T18:25:43.216Z,40.50
2022-11-18T18:28:11.410Z,40.80
2022-11-18T18:30:39.204Z,40.50
2022-11-18T18:33:07.005Z,39.90
2022-11-18T18:35:35.353Z,39.00
2022-11-18T18:38:03.163Z,38.10
2022-11-18T18:40:31.048Z,37.10
2022-11-18T18:42:58.795Z,36.20
2022-11-18T18:45:40.329Z,35.30
2022-11-18T18:48:08.346Z,34.50
2022-11-18T18:50:36.139Z,33.60
2022-11-18T18:53:03.944Z,32.90
2022-11-18T18:55:31.845Z,32.20
2022-11-18T18:57:59.688Z,31.50
2022-11-18T19:00:27.462Z,30.90
2022-11-18T19:02:55.571Z,30.30
2022-11-18T19:05:44.682Z,30.20
2022-11-18T19:08:11.442Z,29.90
2022-11-18T19:10:39.314Z,29.50
2022-11-18T19:13:06.286Z,29.10
2022-11-18T19:15:34.958Z,28.70
2022-11-18T19:18:03.038Z,28.30
2022-11-18T19:20:37.652Z,27.80
2022-11-18T19:23:10.111Z,27.40
2022-11-18T19:25:38.519Z,27.20
2022-11-18T19:28:06.581Z,27.20
2022-11-18T19:30:34.389Z,27.10
2022-11-18T19:33:02.426Z,27.00
2022-11-18T19:35:30.220Z,26.90
2022-11-18T19:37:58.064Z,26.70
2022-11-18T19:40:25.873Z,26.50
2022-11-18T19:42:53.598Z,26.30
2022-11-18T19:45:21.540Z,26.10
2022-11-18T19:47:49.301Z,25.80
2022-11-18T19:50:17.071Z,25.50
2022-11-18T19:52:44.833Z,25.30
2022-11-18T19:55:12.863Z,25.00
2022-11-18T19:57:40.867Z,24.80
2022-11-18T20:00:08.736Z,24.50
2022-11-18T20:02:36.656Z,24.30
2022-11-18T20:05:22.063Z,24.10
2022-11-18T20:07:50.028Z,23.90
2022-11-18T20:10:17.822Z,23.70
2022-11-18T20:12:45.905Z,23.50
2022-11-18T20:15:13.760Z,23.30
2022-11-18T20:17:41.507Z,23.20
2022-11-18T20:20:09.317Z,23.10
2022-11-18T20:22:37.257Z,22.90
2022-11-18T20:25:05.211Z,22.80
2022-11-18T20:27:33.075Z,22.70
2022-11-18T20:30:00.837Z,22.60
2022-11-18T20:32:28.722Z,22.50
2022-11-18T20:34:56.578Z,22.40
2022-11-18T20:37:27.868Z,22.20
2022-11-18T20:39:56.006Z,22.20
2022-11-18T20:42:41.321Z,22.10
2022-11-18T20:45:09.246Z,22.00
2022-11-18T20:47:37.236Z,21.90
2022-11-18T20:50:05.062Z,21.80
2022-11-18T20:52:33.108Z,21.70
2022-11-18T20:55:05.445Z,21.70
2022-11-18T20:57:33.800Z,21.60
2022-11-18T21:00:01.779Z,21.60
2022-11-18T21:02:29.553Z,21.50
2022-11-18T21:04:57.328Z,21.40
2022-11-18T21:07:25.240Z,21.40
2022-11-18T21:09:53.024Z,21.30
2022-11-18T21:12:21.003Z,21.30
2022-11-18T21:14:48.509Z,21.20
2022-11-18T21:17:16.311Z,21.20
2022-11-18T21:19:47.412Z,21.20
2022-11-18T21:22:15.505Z,21.10
2022-11-18T21:24:43.407Z,21.10
2022-11-18T21:27:11.221Z,21.00
2022-11-18T21:29:39.440Z,21.00
2022-11-18T21:32:07.209Z,20.90
2022-11-18T21:34:35.127Z,20.90
2022-11-18T21:37:02.935Z,20.90
2022-11-18T21:39:30.806Z,20.80
2022-11-18T21:42:09.792Z,20.80
2022-11-18T21:44:37.711Z,20.70
2022-11-18T21:47:05.602Z,20.70
2022-11-18T21:49:33.465Z,20.70
2022-11-18T21:52:01.195Z,20.60
2022-11-18T21:54:29.048Z,20.60
2022-11-18T21:56:56.822Z,20.60
2022-11-18T21:59:24.574Z,20.50
2022-11-18T22:01:52.333Z,20.50
2022-11-18T22:04:34.061Z,20.50
2022-11-18T22:07:02.008Z,20.50
2022-11-18T22:09:35.800Z,20.40
2022-11-18T22:12:07.040Z,20.40
2022-11-18T22:14:35.537Z,20.40
2022-11-18T22:17:03.429Z,20.30
2022-11-18T22:19:31.404Z,20.30
2022-11-18T22:21:59.157Z,20.30
2022-11-18T22:24:27.016Z,20.30
2022-11-18T22:26:54.779Z,20.20
2022-11-18T22:29:24.249Z,20.20
2022-11-18T22:31:52.030Z,20.20
2022-11-18T22:34:19.796Z,20.20
2022-11-18T22:36:47.597Z,20.20
2022-11-18T22:39:15.437Z,20.20
2022-11-18T22:42:01.010Z,20.20
2022-11-18T22:44:28.772Z,20.20
2022-11-18T22:46:56.519Z,20.20
2022-11-18T22:49:24.453Z,20.10
2022-11-18T22:51:52.249Z,20.10
2022-11-18T22:56:48.003Z,20.10
2022-11-18T22:59:15.775Z,20.10
2022-11-18T23:01:43.770Z,20.10
2022-11-18T23:04:11.612Z,20.10
2022-11-18T23:06:39.382Z,20.10
2022-11-18T23:09:07.181Z,20.10
2022-11-18T23:11:52.326Z,20.10
2022-11-18T23:14:20.208Z,20.10
2022-11-18T23:16:47.950Z,20.10
2022-11-18T23:19:15.767Z,20.10
2022-11-18T23:21:43.586Z,20.00
2022-11-18T23:24:11.341Z,20.00
2022-11-18T23:26:39.100Z,20.00
2022-11-18T23:29:06.941Z,20.00
2022-11-18T23:31:34.695Z,20.00
2022-11-18T23:34:02.699Z,20.00
2022-11-18T23:36:30.519Z,20.00
2022-11-18T23:38:58.481Z,19.90
2022-11-18T23:41:26.641Z,19.90
2022-11-18T23:43:54.439Z,19.90
2022-11-18T23:46:22.350Z,19.90
2022-11-18T23:48:50.206Z,19.90
2022-11-18T23:51:17.982Z,19.90
2022-11-18T23:53:45.862Z,19.90
2022-11-18T23:56:13.696Z,19.80
2022-11-18T23:58:41.501Z,19.80
